createdAt,value
2022-08-17T00:00:55.647Z,988.97
2022-08-17T00:01:55.689Z,988.96
2022-08-17T00:02:55.636Z,988.95
2022-08-17T00:03:55.635Z,988.91
2022-08-17T00:04:56.449Z,988.91
2022-08-17T00:05:55.591Z,988.85
2022-08-17T00:06:55.688Z,988.90
2022-08-17T00:07:55.581Z,988.92
2022-08-17T00:08:55.602Z,988.93
2022-08-17T00:09:55.553Z,988.93
2022-08-17T00:10:55.570Z,988.91
2022-08-17T00:12:35.009Z,988.95
2022-08-17T00:12:56.737Z,988.92
2022-08-17T00:13:56.280Z,988.90
2022-08-17T00:14:55.540Z,988.93
2022-08-17T00:15:55.520Z,988.91
2022-08-17T00:16:57.326Z,988.91
2022-08-17T00:17:55.509Z,988.91
2022-08-17T00:19:07.023Z,988.92
2022-08-17T00:19:56.475Z,988.94
2022-08-17T00:20:55.474Z,988.94
2022-08-17T00:22:34.062Z,988.87
2022-08-17T00:22:56.429Z,988.87
2022-08-17T00:23:55.408Z,988.95
2022-08-17T00:24:55.413Z,988.98
2022-08-17T00:25:55.450Z,989.00
2022-08-17T00:26:55.383Z,988.99
2022-08-17T00:27:55.391Z,988.96
2022-08-17T00:28:55.380Z,988.93
2022-08-17T00:29:55.495Z,988.89
2022-08-17T00:30:55.376Z,988.84
2022-08-17T00:31:55.347Z,988.90
2022-08-17T00:33:12.248Z,988.86
2022-08-17T00:33:56.350Z,988.82
2022-08-17T00:34:55.315Z,988.85
2022-08-17T00:35:55.333Z,988.85
2022-08-17T00:36:55.316Z,988.80
2022-08-17T00:37:55.279Z,988.83
2022-08-17T00:38:55.245Z,988.85
2022-08-17T00:39:55.356Z,988.83
2022-08-17T00:40:55.893Z,988.88
2022-08-17T00:41:55.316Z,988.89
2022-08-17T00:42:55.246Z,988.80
2022-08-17T00:43:55.240Z,988.81
2022-08-17T00:44:55.217Z,988.77
2022-08-17T00:45:55.219Z,988.80
2022-08-17T00:46:55.192Z,988.85
2022-08-17T00:47:55.185Z,988.83
2022-08-17T00:48:55.222Z,988.81
2022-08-17T00:49:55.125Z,988.84
2022-08-17T00:50:55.193Z,988.83
2022-08-17T00:51:55.186Z,988.86
2022-08-17T00:52:55.121Z,988.86
2022-08-17T00:53:56.140Z,988.88
2022-08-17T00:54:55.109Z,988.90
2022-08-17T00:55:55.110Z,988.89
2022-08-17T00:56:55.097Z,988.89
2022-08-17T00:57:55.718Z,988.92
2022-08-17T00:58:56.088Z,988.99
2022-08-17T01:00:01.823Z,988.95
2022-08-17T01:00:56.094Z,988.93
2022-08-17T01:01:55.035Z,988.91
2022-08-17T01:02:55.283Z,988.96
2022-08-17T01:03:59.594Z,988.89
2022-08-17T01:04:56.018Z,988.88
2022-08-17T01:05:55.025Z,988.96
2022-08-17T01:06:55.001Z,988.92
2022-08-17T01:07:54.982Z,988.93
2022-08-17T01:08:57.707Z,988.91
2022-08-17T01:09:54.982Z,989.01
2022-08-17T01:10:58.954Z,988.98
2022-08-17T01:11:56.001Z,988.99
2022-08-17T01:12:54.954Z,988.97
2022-08-17T01:13:54.909Z,989.07
2022-08-17T01:14:54.898Z,989.07
2022-08-17T01:15:54.914Z,989.07
2022-08-17T01:16:54.921Z,989.10
2022-08-17T01:17:54.889Z,989.07
2022-08-17T01:18:54.882Z,989.06
2022-08-17T01:19:54.868Z,989.12
2022-08-17T01:20:54.933Z,989.06
2022-08-17T01:21:54.877Z,989.14
2022-08-17T01:22:54.873Z,989.08
2022-08-17T01:23:54.824Z,989.10
2022-08-17T01:24:54.829Z,989.06
2022-08-17T01:25:55.517Z,989.10
2022-08-17T01:26:56.733Z,989.10
2022-08-17T01:27:55.305Z,989.12
2022-08-17T01:28:55.884Z,989.06
2022-08-17T01:29:55.776Z,989.13
2022-08-17T01:30:58.542Z,989.09
2022-08-17T01:31:54.733Z,989.11
2022-08-17T01:32:54.821Z,989.14
2022-08-17T01:33:54.714Z,989.07
2022-08-17T01:34:54.748Z,989.01
2022-08-17T01:35:54.679Z,989.11
2022-08-17T01:36:54.693Z,988.99
2022-08-17T01:37:54.671Z,989.03
2022-08-17T01:38:54.665Z,988.99
2022-08-17T01:39:55.592Z,988.95
2022-08-17T01:40:57.567Z,988.96
2022-08-17T01:41:54.651Z,988.98
2022-08-17T01:42:54.605Z,989.02
2022-08-17T01:43:54.645Z,988.92
2022-08-17T01:44:54.632Z,988.96
2022-08-17T01:46:03.583Z,988.97
2022-08-17T01:46:54.639Z,988.98
2022-08-17T01:47:54.582Z,988.93
2022-08-17T01:48:54.531Z,988.97
2022-08-17T01:49:54.550Z,988.95
2022-08-17T01:50:54.538Z,988.95
2022-08-17T01:51:54.556Z,988.96
2022-08-17T01:52:54.567Z,988.98
2022-08-17T01:53:54.552Z,988.98
2022-08-17T01:54:54.538Z,988.98
2022-08-17T01:55:54.534Z,989.00
2022-08-17T01:56:54.537Z,988.98
2022-08-17T01:57:54.516Z,988.96
2022-08-17T01:58:54.490Z,988.99
2022-08-17T01:59:54.487Z,988.96
2022-08-17T02:01:00.823Z,988.98
2022-08-17T02:01:55.566Z,988.98
2022-08-17T02:02:54.458Z,988.94
2022-08-17T02:04:00.437Z,988.95
2022-08-17T02:04:55.436Z,989.08
2022-08-17T02:05:54.396Z,988.99
2022-08-17T02:06:54.713Z,989.02
2022-08-17T02:07:59.663Z,988.93
2022-08-17T02:08:56.956Z,989.00
2022-08-17T02:09:55.500Z,988.97
2022-08-17T02:10:54.367Z,988.96
2022-08-17T02:11:56.217Z,988.93
2022-08-17T02:12:54.522Z,988.94
2022-08-17T02:13:57.953Z,988.94
2022-08-17T02:14:54.316Z,988.93
2022-08-17T02:15:54.303Z,988.92
2022-08-17T02:16:54.399Z,988.92
2022-08-17T02:17:54.809Z,988.92
2022-08-17T02:18:54.326Z,988.95
2022-08-17T02:19:54.340Z,988.97
2022-08-17T02:20:54.236Z,988.92
2022-08-17T02:21:54.297Z,988.88
2022-08-17T02:22:54.234Z,988.96
2022-08-17T02:23:54.957Z,988.92
2022-08-17T02:24:58.778Z,988.90
2022-08-17T02:25:55.274Z,988.94
2022-08-17T02:26:54.208Z,988.94
2022-08-17T02:27:54.176Z,988.99
2022-08-17T02:28:54.201Z,988.94
2022-08-17T02:29:54.202Z,988.96
2022-08-17T02:31:00.790Z,988.86
2022-08-17T02:31:55.162Z,988.95
2022-08-17T02:44:45.610Z,988.91
2022-08-17T02:45:45.621Z,988.87
2022-08-17T02:46:45.618Z,988.92
2022-08-17T02:47:45.672Z,988.91
2022-08-17T02:48:45.525Z,988.88
2022-08-17T02:49:54.195Z,988.85
2022-08-17T02:50:46.476Z,988.89
2022-08-17T02:51:45.451Z,988.85
2022-08-17T02:52:47.486Z,988.87
2022-08-17T02:53:47.600Z,988.91
2022-08-17T02:54:46.603Z,988.91
2022-08-17T02:55:46.564Z,988.85
2022-08-17T02:56:46.598Z,988.90
2022-08-17T02:57:46.574Z,988.84
2022-08-17T02:58:46.611Z,988.83
2022-08-17T02:59:49.023Z,988.82
2022-08-17T03:00:47.635Z,988.79
2022-08-17T03:01:46.575Z,988.85
2022-08-17T03:02:46.538Z,988.84
2022-08-17T03:03:46.495Z,988.85
2022-08-17T03:04:46.476Z,988.85
2022-08-17T03:05:46.529Z,988.86
2022-08-17T03:06:46.458Z,988.87
2022-08-17T03:07:46.505Z,988.90
2022-08-17T03:08:46.469Z,988.88
2022-08-17T03:09:46.423Z,988.83
2022-08-17T03:10:46.447Z,988.86
2022-08-17T03:11:46.430Z,988.84
2022-08-17T03:12:46.451Z,988.82
2022-08-17T03:13:46.405Z,988.81
2022-08-17T03:14:47.373Z,988.81
2022-08-17T03:15:46.347Z,988.76
2022-08-17T03:16:46.394Z,988.78
2022-08-17T03:17:46.358Z,988.73
2022-08-17T03:18:46.375Z,988.70
2022-08-17T03:19:46.345Z,988.66
2022-08-17T03:20:46.361Z,988.68
2022-08-17T03:21:46.312Z,988.70
2022-08-17T03:22:53.019Z,988.69
2022-08-17T03:23:47.280Z,988.68
2022-08-17T03:24:47.281Z,988.73
2022-08-17T03:25:46.292Z,988.73
2022-08-17T03:26:46.286Z,988.71
2022-08-17T03:27:48.245Z,988.81
2022-08-17T03:28:47.261Z,988.72
2022-08-17T03:29:46.189Z,988.74
2022-08-17T03:30:46.272Z,988.72
2022-08-17T03:31:46.245Z,988.75
2022-08-17T03:32:46.278Z,988.75
2022-08-17T03:33:46.180Z,988.74
2022-08-17T03:34:46.177Z,988.74
2022-08-17T03:35:46.165Z,988.75
2022-08-17T03:36:46.157Z,988.71
2022-08-17T03:37:46.228Z,988.75
2022-08-17T03:38:46.140Z,988.75
2022-08-17T03:39:46.222Z,988.72
2022-08-17T03:40:57.031Z,988.77
2022-08-17T03:41:47.091Z,988.82
2022-08-17T03:42:46.805Z,988.78
2022-08-17T03:43:46.114Z,988.83
2022-08-17T03:44:46.619Z,988.82
2022-08-17T03:45:46.108Z,988.81
2022-08-17T03:46:46.028Z,988.82
2022-08-17T03:47:46.078Z,988.79
2022-08-17T03:48:46.051Z,988.75
2022-08-17T03:49:46.746Z,988.76
2022-08-17T03:50:46.023Z,988.78
2022-08-17T03:51:46.051Z,988.78
2022-08-17T03:52:46.041Z,988.76
2022-08-17T03:53:47.022Z,988.75
2022-08-17T03:54:45.966Z,988.72
2022-08-17T03:55:46.015Z,988.73
2022-08-17T03:56:46.715Z,988.74
2022-08-17T03:57:45.988Z,988.77
2022-08-17T03:58:45.988Z,988.81
2022-08-17T03:59:45.965Z,988.78
2022-08-17T04:00:45.953Z,988.84
2022-08-17T04:01:46.012Z,988.82
2022-08-17T04:02:45.999Z,988.75
2022-08-17T04:03:45.908Z,988.82
2022-08-17T04:04:45.904Z,988.79
2022-08-17T04:05:45.905Z,988.82
2022-08-17T04:06:45.855Z,988.81
2022-08-17T04:07:45.889Z,988.87
2022-08-17T04:08:45.835Z,988.80
2022-08-17T04:09:45.841Z,988.84
2022-08-17T04:10:45.844Z,988.82
2022-08-17T04:11:45.815Z,988.84
2022-08-17T04:12:46.811Z,988.89
2022-08-17T04:13:45.799Z,988.86
2022-08-17T04:14:53.763Z,988.87
2022-08-17T04:15:46.797Z,988.84
2022-08-17T04:16:45.767Z,988.88
2022-08-17T04:17:45.788Z,988.86
2022-08-17T04:18:45.756Z,988.92
2022-08-17T04:35:06.942Z,989.07
2022-08-17T04:36:07.985Z,989.00
2022-08-17T04:37:07.997Z,989.05
2022-08-17T04:38:07.967Z,989.11
2022-08-17T04:39:07.941Z,989.00
2022-08-17T04:40:08.032Z,989.04
2022-08-17T04:41:07.880Z,989.02
2022-08-17T04:42:08.967Z,989.09
2022-08-17T04:43:07.901Z,989.01
2022-08-17T04:44:07.837Z,989.08
2022-08-17T04:45:07.843Z,989.07
2022-08-17T04:46:07.865Z,989.13
2022-08-17T04:47:08.525Z,989.09
2022-08-17T04:48:07.823Z,989.13
2022-08-17T04:49:07.869Z,989.13
2022-08-17T04:50:07.854Z,989.15
2022-08-17T04:51:07.767Z,989.08
2022-08-17T04:52:07.828Z,989.13
2022-08-17T04:53:08.862Z,989.18
2022-08-17T04:54:07.752Z,989.13
2022-08-17T04:55:07.734Z,989.18
2022-08-17T04:56:07.752Z,989.23
2022-08-17T04:57:07.711Z,989.17
2022-08-17T04:58:07.819Z,989.10
2022-08-17T04:59:07.731Z,989.16
2022-08-17T05:00:07.786Z,989.10
2022-08-17T05:01:07.846Z,989.18
2022-08-17T05:02:08.725Z,989.16
2022-08-17T05:03:07.697Z,989.16
2022-08-17T05:04:32.964Z,989.16
2022-08-17T05:05:08.678Z,989.23
2022-08-17T05:06:07.612Z,989.21
2022-08-17T05:07:07.694Z,989.26
2022-08-17T05:08:07.586Z,989.26
2022-08-17T05:09:07.586Z,989.25
2022-08-17T05:10:07.657Z,989.26
2022-08-17T05:11:07.590Z,989.19
2022-08-17T05:12:07.655Z,989.28
2022-08-17T05:13:07.537Z,989.25
2022-08-17T05:14:07.534Z,989.30
2022-08-17T05:15:07.563Z,989.33
2022-08-17T05:16:07.531Z,989.36
2022-08-17T05:17:11.283Z,989.38
2022-08-17T05:18:07.496Z,989.40
2022-08-17T05:19:08.392Z,989.40
2022-08-17T05:20:07.483Z,989.41
2022-08-17T05:21:07.610Z,989.41
2022-08-17T05:22:07.481Z,989.45
2022-08-17T05:23:07.520Z,989.35
2022-08-17T05:24:13.514Z,989.44
2022-08-17T05:25:08.431Z,989.38
2022-08-17T05:26:08.727Z,989.39
2022-08-17T05:27:07.492Z,989.38
2022-08-17T05:28:07.579Z,989.35
2022-08-17T05:29:07.395Z,989.42
2022-08-17T05:30:07.374Z,989.39
2022-08-17T05:31:07.397Z,989.37
2022-08-17T05:32:39.439Z,989.34
2022-08-17T05:33:08.634Z,989.32
2022-08-17T05:34:07.335Z,989.37
2022-08-17T05:35:07.415Z,989.29
2022-08-17T05:36:07.348Z,989.23
2022-08-17T05:37:07.309Z,989.28
2022-08-17T05:38:07.352Z,989.25
2022-08-17T05:39:07.314Z,989.27
2022-08-17T05:40:07.412Z,989.30
2022-08-17T05:41:07.321Z,989.25
2022-08-17T05:42:07.326Z,989.31
2022-08-17T05:43:07.256Z,989.29
2022-08-17T05:44:07.251Z,989.18
2022-08-17T05:45:07.283Z,989.25
2022-08-17T05:46:07.238Z,989.22
2022-08-17T05:47:07.314Z,989.28
2022-08-17T05:48:07.304Z,989.29
2022-08-17T05:49:07.312Z,989.29
2022-08-17T05:50:09.867Z,989.27
2022-08-17T05:51:07.176Z,989.31
2022-08-17T05:52:07.152Z,989.28
2022-08-17T05:53:07.208Z,989.30
2022-08-17T05:54:07.225Z,989.30
2022-08-17T05:55:07.097Z,989.29
2022-08-17T05:56:09.101Z,989.30
2022-08-17T05:57:08.114Z,989.31
2022-08-17T05:58:07.186Z,989.31
2022-08-17T05:59:07.127Z,989.30
2022-08-17T06:00:07.127Z,989.37
2022-08-17T06:01:07.261Z,989.31
2022-08-17T06:02:07.111Z,989.30
2022-08-17T06:03:07.114Z,989.39
2022-08-17T06:04:07.102Z,989.34
2022-08-17T06:05:07.142Z,989.34
2022-08-17T10:50:03.342Z,988.69
2022-08-17T10:51:04.342Z,988.73
2022-08-17T10:52:05.148Z,988.79
2022-08-17T10:53:04.492Z,988.78
2022-08-17T11:40:24.584Z,988.94
2022-08-17T12:46:15.022Z,989.10
2022-08-17T12:47:06.926Z,989.07
2022-08-17T12:48:05.931Z,989.09
2022-08-17T12:49:05.667Z,989.07
2022-08-17T12:50:05.875Z,989.05
2022-08-17T12:51:05.639Z,989.08
2022-08-17T12:52:05.841Z,989.04
2022-08-17T12:53:05.621Z,989.04
2022-08-17T12:54:05.648Z,989.00
2022-08-17T12:55:05.595Z,989.05
2022-08-17T12:56:06.248Z,988.98
2022-08-17T12:57:05.591Z,988.98
2022-08-17T12:58:05.565Z,989.01
2022-08-17T12:59:05.596Z,989.00
2022-08-17T13:00:05.651Z,989.01
2022-08-17T13:01:05.833Z,988.96
2022-08-17T13:02:06.052Z,988.91
2022-08-17T13:03:05.869Z,988.90
2022-08-17T13:04:05.830Z,988.90
2022-08-17T13:05:05.511Z,988.88
2022-08-17T13:06:05.903Z,988.89
2022-08-17T13:07:05.545Z,988.86
2022-08-17T13:08:05.493Z,988.87
2022-08-17T13:09:05.532Z,988.87
2022-08-17T13:10:05.552Z,988.81
2022-08-17T13:11:05.520Z,988.80
2022-08-17T13:12:05.674Z,988.76
2022-08-17T13:13:05.531Z,988.68
2022-08-17T13:14:05.629Z,988.72
2022-08-17T13:15:05.559Z,988.64
2022-08-17T13:16:05.817Z,988.68
2022-08-17T13:17:09.712Z,988.65
2022-08-17T13:18:07.562Z,988.70
2022-08-17T13:19:06.085Z,988.73
2022-08-17T13:20:05.420Z,988.72
2022-08-17T13:21:05.356Z,988.67
2022-08-17T13:22:05.333Z,988.67
2022-08-17T13:23:09.977Z,988.73
2022-08-17T13:24:07.367Z,988.68
2022-08-17T13:25:05.394Z,988.67
2022-08-17T13:26:05.554Z,988.65
2022-08-17T13:27:07.919Z,988.64
2022-08-17T13:28:05.706Z,988.65
2022-08-17T13:29:05.294Z,988.66
2022-08-17T13:44:58.639Z,988.61
2022-08-17T13:45:58.658Z,988.62
2022-08-17T13:46:58.611Z,988.58
2022-08-17T13:52:37.862Z,988.63
2022-08-17T13:53:37.940Z,988.58
2022-08-17T13:54:37.560Z,988.60
2022-08-17T13:55:37.535Z,988.62
2022-08-17T13:56:39.552Z,988.70
2022-08-17T14:09:39.585Z,988.50
2022-08-17T14:10:40.887Z,988.48
2022-08-17T14:11:40.928Z,988.44
2022-08-17T14:12:40.924Z,988.46
2022-08-17T14:13:40.726Z,988.43
2022-08-17T14:17:50.594Z,988.39
2022-08-17T14:19:01.812Z,988.42
2022-08-17T14:19:51.624Z,988.38
2022-08-17T14:20:51.681Z,988.33
2022-08-17T14:57:56.361Z,988.32
2022-08-17T15:05:46.182Z,988.08
2022-08-17T16:15:34.210Z,987.38
2022-08-17T16:16:35.340Z,987.42
2022-08-17T16:17:39.857Z,987.35
2022-08-17T16:18:36.362Z,987.35
2022-08-17T16:19:36.047Z,987.36
2022-08-17T16:20:35.260Z,987.29
2022-08-17T16:21:42.815Z,987.30
2022-08-17T16:22:36.249Z,987.28
2022-08-17T16:23:35.252Z,987.27
2022-08-17T16:24:35.294Z,987.36
2022-08-17T16:40:09.913Z,987.12
2022-08-17T16:41:11.085Z,987.10
2022-08-17T16:42:11.194Z,987.10
2022-08-17T16:43:11.015Z,987.10
2022-08-17T16:44:11.036Z,987.10
2022-08-17T16:45:10.967Z,987.14
2022-08-17T16:46:11.151Z,987.12
2022-08-17T16:47:10.936Z,987.12
2022-08-17T16:48:10.922Z,987.13
2022-08-17T16:49:10.973Z,987.14
2022-08-17T16:50:11.917Z,987.14
2022-08-17T16:51:10.879Z,987.14
2022-08-17T16:52:11.374Z,987.17
2022-08-17T16:53:11.038Z,987.22
2022-08-17T16:54:14.678Z,987.23
2022-08-17T16:55:13.245Z,987.19
2022-08-17T16:56:10.830Z,987.20
2022-08-17T16:57:10.839Z,987.21
2022-08-17T16:58:10.861Z,987.25
2022-08-17T16:59:30.350Z,987.25
2022-08-17T17:00:11.810Z,987.25
2022-08-17T17:01:10.885Z,987.27
2022-08-17T17:02:10.818Z,987.33
2022-08-17T17:03:18.961Z,987.36
2022-08-17T17:04:11.855Z,987.37
2022-08-17T17:05:11.669Z,987.36
2022-08-17T17:06:10.832Z,987.32
2022-08-17T17:07:10.793Z,987.36
2022-08-17T17:08:10.721Z,987.39
2022-08-17T17:09:10.748Z,987.42
2022-08-17T17:10:10.693Z,987.41
2022-08-17T17:11:10.713Z,987.41
2022-08-17T17:12:11.670Z,987.37
2022-08-17T17:13:10.674Z,987.37
2022-08-17T17:14:10.705Z,987.39
2022-08-17T17:15:10.654Z,987.47
2022-08-17T17:16:10.697Z,987.44
2022-08-17T17:17:10.625Z,987.40
2022-08-17T17:18:10.629Z,987.43
2022-08-17T17:19:10.661Z,987.39
2022-08-17T17:20:10.628Z,987.37
2022-08-17T17:21:10.581Z,987.44
2022-08-17T17:22:10.627Z,987.47
2022-08-17T17:23:11.566Z,987.44
2022-08-17T17:24:10.576Z,987.41
2022-08-17T17:25:10.544Z,987.40
2022-08-17T17:26:10.549Z,987.41
2022-08-17T17:27:10.552Z,987.41
2022-08-17T17:28:10.623Z,987.45
2022-08-17T17:29:10.575Z,987.48
2022-08-17T17:30:10.522Z,987.48
2022-08-17T17:31:10.509Z,987.46
2022-08-17T17:32:10.483Z,987.44
2022-08-17T17:33:10.534Z,987.53
2022-08-17T17:34:10.476Z,987.50
2022-08-17T17:35:11.161Z,987.49
2022-08-17T17:36:10.426Z,987.49
2022-08-17T17:37:10.435Z,987.55
2022-08-17T17:38:10.456Z,987.53
2022-08-17T17:39:10.443Z,987.53
2022-08-17T17:40:10.526Z,987.46
2022-08-17T17:41:10.428Z,987.51
2022-08-17T17:42:11.178Z,987.51
2022-08-17T17:43:36.903Z,987.49
2022-08-17T17:44:12.495Z,987.52
2022-08-17T17:45:11.369Z,987.53
2022-08-17T17:46:28.665Z,987.58
2022-08-17T17:47:11.358Z,987.56
2022-08-17T17:48:10.348Z,987.54
2022-08-17T17:49:11.153Z,987.59
2022-08-17T17:50:11.330Z,987.65
2022-08-17T17:51:10.336Z,987.61
2022-08-17T17:52:14.551Z,987.74
2022-08-17T17:53:12.296Z,987.76
2022-08-17T17:54:10.270Z,987.73
2022-08-17T17:55:10.259Z,987.73
2022-08-17T17:56:18.777Z,987.76
2022-08-17T17:57:11.231Z,987.73
2022-08-17T17:58:10.217Z,987.72
2022-08-17T17:59:12.933Z,987.71
2022-08-17T18:00:10.338Z,987.72
2022-08-17T18:01:10.213Z,987.72
2022-08-17T18:02:11.299Z,987.76
2022-08-17T18:03:10.217Z,987.80
2022-08-17T18:04:17.565Z,987.78
2022-08-17T18:05:11.779Z,987.83
2022-08-17T18:06:10.432Z,987.82
2022-08-17T18:07:11.131Z,987.79
2022-08-17T18:08:10.682Z,987.82
2022-08-17T18:09:10.243Z,987.81
2022-08-17T18:10:13.724Z,987.77
2022-08-17T18:11:11.094Z,987.84
2022-08-17T18:12:10.160Z,987.78
2022-08-17T18:13:10.080Z,987.76
2022-08-17T18:14:10.111Z,987.76
2022-08-17T18:15:10.197Z,987.70
2022-08-17T18:16:10.034Z,987.73
2022-08-17T18:17:10.673Z,987.71
2022-08-17T18:18:10.047Z,987.79
2022-08-17T18:19:10.132Z,987.79
2022-08-17T18:20:10.006Z,987.76
2022-08-17T18:21:10.055Z,987.80
2022-08-17T18:22:14.272Z,987.86
2022-08-17T18:23:09.996Z,987.79
2022-08-17T18:24:10.013Z,987.82
2022-08-17T18:25:09.998Z,987.78
2022-08-17T18:26:09.953Z,987.78
2022-08-17T18:27:09.965Z,987.75
2022-08-17T18:28:10.561Z,987.78
2022-08-17T18:29:09.962Z,987.86
2022-08-17T18:30:09.967Z,987.91
2022-08-17T18:31:09.904Z,987.94
2022-08-17T18:32:09.907Z,987.96
2022-08-17T18:33:09.873Z,987.93
2022-08-17T18:34:23.386Z,987.99
2022-08-17T18:35:11.931Z,987.94
2022-08-17T18:36:09.864Z,987.93
2022-08-17T18:37:09.880Z,987.95
2022-08-17T18:38:09.855Z,987.97
2022-08-17T18:39:09.861Z,987.97
2022-08-17T18:40:09.927Z,987.87
2022-08-17T18:41:09.807Z,987.91
2022-08-17T18:42:09.906Z,987.94
2022-08-17T18:43:09.786Z,987.91
2022-08-17T18:44:09.771Z,987.90
2022-08-17T18:45:09.801Z,987.88
2022-08-17T18:46:09.751Z,987.91
2022-08-17T18:47:10.699Z,987.96
2022-08-17T18:48:09.728Z,987.94
2022-08-17T18:49:09.750Z,987.95
2022-08-17T18:50:09.743Z,987.97
2022-08-17T18:51:09.708Z,987.96
2022-08-17T18:52:09.735Z,988.01
2022-08-17T18:53:09.737Z,988.00
2022-08-17T18:54:10.695Z,988.03
2022-08-17T18:55:09.738Z,987.99
2022-08-17T18:56:09.668Z,988.03
2022-08-17T18:57:09.635Z,987.94
2022-08-17T18:58:09.643Z,987.96
2022-08-17T18:59:09.619Z,987.99
2022-08-17T19:00:09.689Z,987.97
2022-08-17T19:01:09.662Z,988.00
2022-08-17T19:02:15.317Z,987.97
2022-08-17T19:03:12.392Z,987.90
2022-08-17T19:04:09.564Z,987.92
2022-08-17T19:05:09.593Z,987.98
2022-08-17T19:06:09.565Z,987.94
2022-08-17T19:07:09.541Z,988.04
2022-08-17T19:08:09.555Z,988.05
2022-08-17T19:09:09.526Z,988.03
2022-08-17T19:10:09.602Z,988.06
2022-08-17T19:11:09.517Z,988.04
2022-08-17T19:12:09.519Z,988.00
2022-08-17T19:13:12.794Z,988.06
2022-08-17T19:14:09.455Z,988.05
2022-08-17T19:15:09.517Z,988.11
2022-08-17T19:16:14.475Z,988.11
2022-08-17T19:17:10.494Z,988.07
2022-08-17T19:18:14.704Z,988.05
2022-08-17T19:19:11.419Z,988.08
2022-08-17T19:20:10.210Z,988.09
2022-08-17T19:21:09.451Z,988.11
2022-08-17T19:22:10.335Z,988.14
2022-08-17T19:23:09.408Z,988.18
2022-08-17T19:24:09.413Z,988.23
2022-08-17T19:25:09.491Z,988.25
2022-08-17T19:26:50.365Z,988.25
2022-08-17T19:27:10.445Z,988.27
2022-08-17T19:28:15.341Z,988.22
2022-08-17T19:29:10.376Z,988.25
2022-08-17T19:30:09.319Z,988.27
2022-08-17T19:31:09.331Z,988.28
2022-08-17T19:32:09.347Z,988.30
2022-08-17T19:33:09.360Z,988.32
2022-08-17T19:34:10.208Z,988.36
2022-08-17T19:35:13.589Z,988.37
2022-08-17T19:36:10.282Z,988.34
2022-08-17T19:37:09.259Z,988.37
2022-08-17T19:38:12.741Z,988.31
2022-08-17T19:39:09.203Z,988.31
2022-08-17T19:40:09.287Z,988.34
2022-08-17T19:41:09.321Z,988.38
2022-08-17T19:42:09.201Z,988.39
2022-08-17T19:43:09.198Z,988.43
2022-08-17T19:44:09.178Z,988.43
2022-08-17T19:45:09.246Z,988.41
2022-08-17T19:46:09.198Z,988.39
2022-08-17T19:47:10.495Z,988.42
2022-08-17T19:48:09.362Z,988.49
2022-08-17T19:49:09.123Z,988.47
2022-08-17T19:50:10.009Z,988.41
2022-08-17T19:51:09.111Z,988.42
2022-08-17T19:52:09.147Z,988.46
2022-08-17T19:53:09.058Z,988.46
2022-08-17T19:54:09.067Z,988.43
2022-08-17T19:55:09.127Z,988.43
2022-08-17T19:56:09.033Z,988.48
2022-08-17T19:57:09.065Z,988.52
2022-08-17T19:58:11.767Z,988.48
2022-08-17T19:59:10.061Z,988.51
2022-08-17T20:00:09.086Z,988.59
2022-08-17T20:01:09.042Z,988.48
2022-08-17T20:02:09.708Z,988.52
2022-08-17T20:03:09.015Z,988.57
2022-08-17T20:04:08.959Z,988.54
2022-08-17T20:05:08.976Z,988.51
2022-08-17T20:06:13.154Z,988.59
2022-08-17T20:07:10.954Z,988.51
2022-08-17T20:08:08.954Z,988.51
2022-08-17T20:09:14.791Z,988.56
2022-08-17T20:10:10.937Z,988.56
2022-08-17T20:11:08.915Z,988.54
2022-08-17T20:12:08.888Z,988.56
2022-08-17T20:13:08.881Z,988.62
2022-08-17T20:14:08.870Z,988.61
2022-08-17T20:15:08.881Z,988.63
2022-08-17T20:16:10.095Z,988.59
2022-08-17T20:17:08.820Z,988.58
2022-08-17T20:18:08.840Z,988.58
2022-08-17T20:19:08.814Z,988.60
2022-08-17T20:20:08.838Z,988.59
2022-08-17T20:21:09.811Z,988.64
2022-08-17T20:22:09.933Z,988.62
2022-08-17T20:23:09.694Z,988.61
2022-08-17T20:24:08.775Z,988.62
2022-08-17T20:25:08.806Z,988.63
2022-08-17T20:26:08.754Z,988.61
2022-08-17T20:27:08.867Z,988.63
2022-08-17T20:28:08.734Z,988.59
2022-08-17T20:29:08.730Z,988.65
2022-08-17T20:30:08.793Z,988.61
2022-08-17T20:31:08.740Z,988.72
2022-08-17T20:32:08.705Z,988.71
2022-08-17T20:33:08.675Z,988.71
2022-08-17T20:34:08.681Z,988.70
2022-08-17T20:35:08.680Z,988.68
2022-08-17T20:36:08.681Z,988.65
2022-08-17T20:37:08.857Z,988.66
2022-08-17T20:38:08.637Z,988.61
2022-08-17T20:39:09.250Z,988.63
2022-08-17T20:40:08.673Z,988.62
2022-08-17T20:41:08.613Z,988.63
2022-08-17T20:42:08.574Z,988.65
2022-08-17T20:43:08.582Z,988.64
2022-08-17T20:44:08.582Z,988.63
2022-08-17T20:45:08.587Z,988.69
2022-08-17T20:46:08.642Z,988.64
2022-08-17T20:47:08.539Z,988.72
2022-08-17T20:48:35.638Z,988.70
2022-08-17T20:49:10.541Z,988.67
2022-08-17T20:50:08.544Z,988.68
2022-08-17T20:51:08.490Z,988.70
2022-08-17T20:52:08.481Z,988.69
2022-08-17T20:53:08.504Z,988.71
2022-08-17T20:54:09.472Z,988.75
2022-08-17T20:55:08.548Z,988.85
2022-08-17T20:56:08.446Z,988.82
2022-08-17T20:57:14.021Z,988.81
2022-08-17T20:58:09.428Z,988.82
2022-08-17T20:59:08.442Z,988.82
2022-08-17T21:00:08.465Z,988.77
2022-08-17T21:01:08.476Z,988.72
2022-08-17T21:02:17.463Z,988.79
2022-08-17T21:03:10.371Z,988.79
2022-08-17T21:04:09.132Z,988.80
2022-08-17T21:05:08.375Z,988.75
2022-08-17T21:06:17.305Z,988.79
2022-08-17T21:07:09.431Z,988.83
2022-08-17T21:08:08.382Z,988.77
2022-08-17T21:09:08.351Z,988.81
2022-08-17T21:10:08.309Z,988.78
2022-08-17T21:11:08.319Z,988.79
2022-08-17T21:12:08.307Z,988.83
2022-08-17T21:13:08.275Z,988.84
2022-08-17T21:14:09.328Z,988.86
2022-08-17T21:15:08.288Z,988.87
2022-08-17T21:16:08.278Z,988.84
2022-08-17T21:17:08.229Z,988.98
2022-08-17T21:18:08.218Z,988.95
2022-08-17T21:19:08.223Z,988.99
2022-08-17T21:20:11.561Z,988.93
2022-08-17T21:21:10.594Z,988.99
2022-08-17T21:22:08.191Z,988.96
2022-08-17T21:23:08.203Z,988.96
2022-08-17T21:24:08.172Z,988.96
2022-08-17T21:25:08.204Z,988.98
2022-08-17T21:26:08.170Z,988.97
2022-08-17T21:27:08.176Z,988.94
2022-08-17T21:28:08.151Z,989.01
2022-08-17T21:29:14.697Z,989.01
2022-08-17T21:30:10.272Z,989.05
2022-08-17T21:31:08.111Z,989.07
2022-08-17T21:32:09.515Z,989.06
2022-08-17T21:33:08.065Z,989.07
2022-08-17T21:34:08.057Z,989.10
2022-08-17T21:35:08.113Z,989.10
2022-08-17T21:36:08.055Z,989.09
2022-08-17T21:37:08.735Z,989.10
2022-08-17T21:38:08.027Z,989.20
2022-08-17T21:39:08.010Z,989.18
2022-08-17T21:40:08.165Z,989.17
2022-08-17T21:41:08.052Z,989.24
2022-08-17T21:42:07.998Z,989.22
2022-08-17T21:43:08.025Z,989.23
2022-08-17T21:44:08.706Z,989.20
2022-08-17T21:45:07.975Z,989.19
2022-08-17T21:46:07.978Z,989.17
2022-08-17T21:47:07.935Z,989.21
2022-08-17T21:48:07.996Z,989.14
2022-08-17T21:49:13.363Z,989.15
2022-08-17T21:50:09.655Z,989.23
2022-08-17T21:51:07.963Z,989.22
2022-08-17T21:52:07.916Z,989.19
2022-08-17T21:53:07.934Z,989.24
2022-08-17T21:54:07.906Z,989.20
2022-08-17T21:55:07.940Z,989.30
2022-08-17T21:56:07.851Z,989.37
2022-08-17T21:57:07.823Z,989.21
2022-08-17T21:58:13.908Z,989.32
2022-08-17T21:59:08.802Z,989.33
2022-08-17T22:00:08.705Z,989.32
2022-08-17T22:01:07.829Z,989.36
2022-08-17T22:02:07.807Z,989.34
2022-08-17T22:03:07.762Z,989.36
2022-08-17T22:04:07.762Z,989.37
2022-08-17T22:05:07.810Z,989.37
2022-08-17T22:06:07.720Z,989.41
2022-08-17T22:07:07.743Z,989.39
2022-08-17T22:08:07.734Z,989.44
2022-08-17T22:09:08.765Z,989.43
2022-08-17T22:10:07.717Z,989.47
2022-08-17T22:11:07.706Z,989.49
2022-08-17T22:12:07.703Z,989.51